createdAt,value
2022-12-19T00:01:16.140Z,99015.25
2022-12-19T00:03:47.997Z,99016.03
2022-12-19T00:06:20.370Z,99024.00
2022-12-19T00:08:53.652Z,99030.31
2022-12-19T00:11:27.134Z,99031.84
2022-12-19T00:14:00.261Z,99033.97
2022-12-19T00:16:33.060Z,99038.66
2022-12-19T00:19:04.742Z,99038.22
2022-12-19T00:21:37.787Z,99032.50
2022-12-19T00:24:21.628Z,99043.69
2022-12-19T00:26:52.782Z,99039.22
2022-12-19T00:29:25.521Z,99038.91
2022-12-19T00:31:55.627Z,99046.19
2022-12-19T00:34:25.766Z,99050.06
2022-12-19T00:36:55.753Z,99045.47
2022-12-19T00:39:26.044Z,99046.84
2022-12-19T00:41:56.028Z,99045.47
2022-12-19T00:44:28.672Z,99045.13
2022-12-19T00:46:58.695Z,99035.41
2022-12-19T00:49:28.730Z,99033.28
2022-12-19T00:52:00.046Z,99032.06
2022-12-19T00:54:30.375Z,99023.78
2022-12-19T00:57:02.911Z,99020.44
2022-12-19T00:59:35.507Z,99025.25
2022-12-19T01:02:05.610Z,99010.47
2022-12-19T01:04:41.363Z,99017.25
2022-12-19T01:07:15.638Z,99003.66
2022-12-19T01:09:45.645Z,99001.81
2022-12-19T01:12:29.317Z,98989.25
2022-12-19T01:15:05.066Z,98992.63
2022-12-19T01:17:44.380Z,98980.22
2022-12-19T01:20:19.124Z,98989.25
2022-12-19T01:23:01.042Z,98986.69
2022-12-19T01:25:31.172Z,99001.00
2022-12-19T01:28:01.602Z,99001.25
2022-12-19T01:30:37.864Z,98998.66
2022-12-19T01:33:09.660Z,99023.84
2022-12-19T01:35:39.717Z,99004.69
2022-12-19T01:38:09.783Z,98999.16
2022-12-19T01:40:41.124Z,99002.13
2022-12-19T01:43:17.506Z,98991.34
2022-12-19T01:45:57.365Z,98990.88
2022-12-19T01:48:36.241Z,98983.22
2022-12-19T01:51:14.235Z,98983.78
2022-12-19T01:53:50.199Z,98984.50
2022-12-19T01:56:25.532Z,98974.69
2022-12-19T01:59:01.739Z,98965.28
2022-12-19T02:01:51.456Z,98958.13
2022-12-19T02:04:28.945Z,98956.59
2022-12-19T02:07:10.905Z,98958.94
2022-12-19T02:09:49.572Z,98952.25
2022-12-19T02:12:28.833Z,98949.28
2022-12-19T02:15:03.282Z,98953.06
2022-12-19T02:17:54.888Z,98953.38
2022-12-19T02:21:17.021Z,98945.66
2022-12-19T02:24:29.531Z,98957.31
2022-12-19T02:27:23.558Z,98952.63
2022-12-19T02:30:10.681Z,98958.03
2022-12-19T02:33:04.816Z,98957.22
2022-12-19T02:35:45.512Z,98963.31
2022-12-19T02:38:27.391Z,98953.25
2022-12-19T02:41:04.617Z,98956.44
2022-12-19T02:43:42.605Z,98962.69
2022-12-19T02:46:14.430Z,98949.91
2022-12-19T02:48:47.708Z,98939.63
2022-12-19T02:51:18.750Z,98939.38
2022-12-19T02:53:51.133Z,98943.88
2022-12-19T02:56:42.882Z,98941.94
2022-12-19T02:59:43.726Z,98940.63
2022-12-19T03:02:32.717Z,98941.22
2022-12-19T03:05:15.736Z,98937.41
2022-12-19T03:07:58.158Z,98951.97
2022-12-19T03:10:39.005Z,98971.97
2022-12-19T03:13:15.786Z,98969.66
2022-12-19T03:15:47.732Z,98957.59
2022-12-19T03:18:18.240Z,98951.34
2022-12-19T03:20:57.163Z,98940.78
2022-12-19T03:23:27.277Z,98927.03
2022-12-19T03:26:02.447Z,98941.56
2022-12-19T03:28:41.999Z,98954.59
2022-12-19T03:31:15.327Z,98970.91
2022-12-19T03:33:48.152Z,98963.75
2022-12-19T03:36:27.975Z,98965.38
2022-12-19T03:38:59.873Z,98960.81
2022-12-19T03:41:43.020Z,98963.94
2022-12-19T03:44:17.567Z,98975.59
2022-12-19T03:46:56.911Z,98974.97
2022-12-19T03:49:27.300Z,98976.31
2022-12-19T03:52:13.510Z,98979.22
2022-12-19T03:54:51.087Z,98974.78
2022-12-19T03:57:31.006Z,98970.19
2022-12-19T04:00:07.984Z,98973.38
2022-12-19T04:02:50.432Z,98977.19
2022-12-19T04:05:25.824Z,98972.00
2022-12-19T04:08:04.463Z,98974.00
2022-12-19T04:10:41.105Z,98978.81
2022-12-19T04:13:18.745Z,98973.81
2022-12-19T04:15:59.591Z,98978.47
2022-12-19T04:18:30.517Z,98990.94
2022-12-19T04:21:08.327Z,98990.69
2022-12-19T04:23:48.365Z,98988.72
2022-12-19T04:26:22.796Z,98988.09
2022-12-19T04:28:58.296Z,98992.75
2022-12-19T04:31:28.544Z,98991.41
2022-12-19T04:33:58.627Z,98988.84
2022-12-19T04:36:30.671Z,98986.28
2022-12-19T04:39:03.362Z,98982.75
2022-12-19T04:41:33.364Z,98987.06
2022-12-19T04:44:03.438Z,98994.19
2022-12-19T04:46:33.524Z,98993.22
2022-12-19T04:49:03.592Z,98986.16
2022-12-19T04:51:33.580Z,98985.19
2022-12-19T04:54:06.651Z,98989.03
2022-12-19T04:56:36.788Z,98979.13
2022-12-19T04:59:06.942Z,98980.16
2022-12-19T05:01:37.137Z,98974.19
2022-12-19T05:04:07.897Z,98976.50
2022-12-19T05:06:38.103Z,98970.19
2022-12-19T05:09:13.223Z,98968.31
2022-12-19T05:11:43.387Z,98965.53
2022-12-19T05:14:13.604Z,98959.56
2022-12-19T05:16:43.934Z,98968.03
2022-12-19T05:19:14.248Z,98957.78
2022-12-19T05:21:44.427Z,98953.50
2022-12-19T05:24:17.065Z,98955.72
2022-12-19T05:26:47.092Z,98944.13
2022-12-19T05:29:17.278Z,98938.03
2022-12-19T05:31:47.814Z,98932.25
2022-12-19T05:34:17.883Z,98931.25
2022-12-19T05:36:47.864Z,98927.97
2022-12-19T05:39:20.584Z,98925.03
2022-12-19T05:41:50.606Z,98924.66
2022-12-19T05:44:20.775Z,98932.84
2022-12-19T05:46:50.809Z,98937.09
2022-12-19T05:49:20.878Z,98950.94
2022-12-19T05:51:50.987Z,98954.50
2022-12-19T05:54:23.774Z,98949.16
2022-12-19T05:56:54.462Z,98948.59
2022-12-19T05:59:24.509Z,98941.78
2022-12-19T06:01:56.282Z,98922.00
2022-12-19T06:04:26.421Z,98931.81
2022-12-19T06:06:56.960Z,98926.53
2022-12-19T06:09:29.651Z,98926.66
2022-12-19T06:11:59.958Z,98928.44
2022-12-19T06:14:29.950Z,98928.69
2022-12-19T06:17:00.136Z,98927.50
2022-12-19T06:19:31.324Z,98927.28
2022-12-19T06:22:01.347Z,98924.38
2022-12-19T06:24:34.013Z,98925.75
2022-12-19T06:27:04.173Z,98923.88
2022-12-19T06:29:34.299Z,98928.28
2022-12-19T06:32:04.378Z,98920.75
2022-12-19T06:35:02.683Z,98932.19
2022-12-19T06:37:24.357Z,98930.47
2022-12-19T06:39:56.968Z,98931.28
2022-12-19T06:42:24.586Z,98931.06
2022-12-19T06:44:56.652Z,98922.41
2022-12-19T06:47:28.127Z,98925.50
2022-12-19T06:49:58.112Z,98927.81
2022-12-19T06:52:28.180Z,98925.31
2022-12-19T06:55:01.266Z,98927.75
2022-12-19T06:57:31.282Z,98921.72
2022-12-19T07:00:01.327Z,98916.63
2022-12-19T07:02:35.435Z,98912.63
2022-12-19T07:05:09.730Z,98911.69
2022-12-19T07:07:41.469Z,98915.28
2022-12-19T07:10:15.743Z,98916.78
2022-12-19T07:12:45.830Z,98924.31
2022-12-19T07:15:16.045Z,98922.91
2022-12-19T07:17:46.676Z,98927.41
2022-12-19T07:20:18.681Z,98921.41
2022-12-19T07:22:49.603Z,98912.91
2022-12-19T07:25:22.721Z,98913.31
2022-12-19T07:27:54.434Z,98910.09
2022-12-19T07:30:24.579Z,98910.41
2022-12-19T07:32:55.118Z,98914.41
2022-12-19T07:35:25.799Z,98912.69
2022-12-19T07:37:55.790Z,98922.31
2022-12-19T07:40:28.576Z,98927.31
2022-12-19T07:43:03.045Z,98926.94
2022-12-19T07:45:33.686Z,98919.31
2022-12-19T07:48:04.480Z,98925.72
2022-12-19T07:50:35.699Z,98930.53
2022-12-19T07:53:05.802Z,98935.34
2022-12-19T07:55:38.540Z,98938.75
2022-12-19T07:58:10.377Z,98928.84
2022-12-19T08:00:40.609Z,98927.34
2022-12-19T08:03:10.664Z,98929.34
2022-12-19T08:05:42.155Z,98932.31
2022-12-19T08:08:12.251Z,98923.19
2022-12-19T08:13:30.068Z,98920.06
2022-12-19T08:16:04.075Z,98914.56
2022-12-19T08:18:34.147Z,98920.97
2022-12-19T08:21:04.380Z,98926.91
2022-12-19T08:23:35.731Z,98930.69
2022-12-19T08:26:09.564Z,98936.03
2022-12-19T08:28:42.402Z,98939.00
2022-12-19T08:31:16.735Z,98945.03
2022-12-19T08:33:47.820Z,98929.75
2022-12-19T08:36:19.888Z,98937.00
2022-12-19T08:38:51.167Z,98949.31
2022-12-19T08:41:21.927Z,98953.41
2022-12-19T08:43:56.454Z,98954.81
2022-12-19T08:46:27.312Z,98950.56
2022-12-19T08:48:57.415Z,98951.41
2022-12-19T08:51:27.425Z,98946.31
2022-12-19T08:53:57.392Z,98941.47
2022-12-19T08:56:27.413Z,98944.06
2022-12-19T08:59:00.131Z,98944.72
2022-12-19T09:01:30.306Z,98937.97
2022-12-19T09:05:28.521Z,98943.19
2022-12-19T09:06:52.320Z,98936.56
2022-12-19T09:09:22.340Z,98945.59
2022-12-19T09:11:52.347Z,98941.66
2022-12-19T09:14:24.923Z,98939.56
2022-12-19T09:16:55.082Z,98939.09
2022-12-19T09:19:29.267Z,98932.34
2022-12-19T09:21:59.365Z,98920.16
2022-12-19T09:24:29.728Z,98918.97
2022-12-19T09:26:59.926Z,98917.47
2022-12-19T09:29:35.551Z,98921.41
2022-12-19T09:32:06.150Z,98922.53
2022-12-19T09:34:38.419Z,98922.56
2022-12-19T09:37:16.722Z,98928.84
2022-12-19T09:39:49.041Z,98912.63
2022-12-19T09:42:47.213Z,98919.59
2022-12-19T09:45:40.447Z,98916.75
2022-12-19T09:48:24.451Z,98913.88
2022-12-19T09:51:10.046Z,98921.19
2022-12-19T09:53:58.341Z,98925.03
2022-12-19T09:56:45.285Z,98931.19
2022-12-19T09:59:31.561Z,98924.00
2022-12-19T10:02:37.106Z,98919.78
2022-12-19T10:06:09.399Z,98909.22
2022-12-19T10:08:21.338Z,98900.75
2022-12-19T10:12:45.128Z,98893.78
2022-12-19T10:14:25.490Z,98883.91
2022-12-19T10:17:26.275Z,98893.63
2022-12-19T10:20:21.739Z,98903.66
2022-12-19T10:23:11.312Z,98893.16
2022-12-19T10:25:58.032Z,98892.44
2022-12-19T10:28:57.978Z,98867.91
2022-12-19T10:31:40.425Z,98869.38
2022-12-19T10:34:21.380Z,98874.84
2022-12-19T10:37:29.028Z,98870.13
2022-12-19T10:40:03.342Z,98878.16
2022-12-19T10:42:51.444Z,98863.09
2022-12-19T10:45:25.477Z,98872.31
2022-12-19T10:48:01.183Z,98868.09
2022-12-19T10:50:33.226Z,98859.31
2022-12-19T10:53:14.328Z,98847.75
2022-12-19T10:55:50.862Z,98861.81
2022-12-19T10:58:26.414Z,98870.75
2022-12-19T11:01:14.556Z,98866.25
2022-12-19T11:03:49.950Z,98863.88
2022-12-19T11:07:09.241Z,98862.75
2022-12-19T11:09:49.948Z,98842.63
2022-12-19T11:16:39.688Z,98831.44
2022-12-19T11:20:10.130Z,98837.31
2022-12-19T11:29:18.665Z,98833.94
2022-12-19T11:29:27.251Z,98836.84
2022-12-19T11:30:47.827Z,98831.00
2022-12-19T11:30:59.413Z,98841.53
2022-12-19T11:31:52.857Z,98831.81
2022-12-19T11:33:25.035Z,98816.03
2022-12-19T11:35:58.550Z,98804.47
2022-12-19T11:38:41.748Z,98804.16
2022-12-19T11:41:23.050Z,98803.16
2022-12-19T11:44:05.804Z,98798.44
2022-12-19T11:46:46.259Z,98803.16
2022-12-19T11:49:30.333Z,98798.88
2022-12-19T11:52:36.806Z,98796.25
2022-12-19T11:55:10.986Z,98788.34
2022-12-19T11:57:44.943Z,98776.66
2022-12-19T12:00:23.277Z,98774.69
2022-12-19T12:03:54.061Z,98784.59
2022-12-19T12:06:39.895Z,98766.97
2022-12-19T12:14:45.768Z,98771.47
2022-12-19T12:21:15.166Z,98785.50
2022-12-19T12:28:32.354Z,98773.84
2022-12-19T12:31:08.775Z,98788.56
2022-12-19T12:31:22.236Z,98783.44
2022-12-19T12:31:53.472Z,98778.00
2022-12-19T12:32:00.358Z,98778.13
2022-12-19T12:35:48.613Z,98767.28
2022-12-19T12:38:43.231Z,98759.72
2022-12-19T12:41:47.717Z,98764.88
2022-12-19T12:44:18.509Z,98757.59
2022-12-19T12:47:18.266Z,98758.53
2022-12-19T12:49:53.934Z,98753.13
2022-12-19T12:52:34.363Z,98755.22
2022-12-19T12:55:06.504Z,98752.78
2022-12-19T12:57:40.652Z,98745.34
2022-12-19T13:00:26.495Z,98749.78
2022-12-19T13:03:08.897Z,98747.53
2022-12-19T13:05:56.958Z,98750.53
2022-12-19T13:08:41.611Z,98740.28
2022-12-19T13:11:38.878Z,98748.25
2022-12-19T13:14:46.421Z,98743.72
2022-12-19T13:17:27.852Z,98727.69
2022-12-19T13:20:44.943Z,98735.44
2022-12-19T13:23:36.254Z,98741.00
2022-12-19T13:26:08.141Z,98742.28
2022-12-19T13:28:45.614Z,98740.91
2022-12-19T13:31:22.887Z,98745.50
2022-12-19T13:34:21.044Z,98748.66
2022-12-19T13:39:56.903Z,98743.97
2022-12-19T13:40:11.960Z,98732.56
2022-12-19T13:43:11.160Z,98727.44
2022-12-19T13:45:50.528Z,98739.69
2022-12-19T13:48:33.176Z,98736.84
2022-12-19T13:51:09.640Z,98748.44
2022-12-19T13:53:43.928Z,98741.22
2022-12-19T13:56:17.831Z,98749.09
2022-12-19T13:58:54.250Z,98753.59
2022-12-19T14:01:33.171Z,98751.88
2022-12-19T14:04:10.817Z,98749.72
2022-12-19T14:06:46.929Z,98751.59
2022-12-19T14:11:27.716Z,98749.72
2022-12-19T14:13:54.055Z,98743.47
2022-12-19T14:15:36.583Z,98747.00
2022-12-19T14:18:44.459Z,98749.25
2022-12-19T14:22:04.135Z,98753.09
2022-12-19T14:24:18.009Z,98758.88
2022-12-19T14:28:25.685Z,98747.53
2022-12-19T14:30:30.702Z,98754.09
2022-12-19T14:33:44.636Z,98756.22
2022-12-19T14:36:06.656Z,98764.16
2022-12-19T14:39:20.121Z,98752.81
2022-12-19T14:42:00.917Z,98742.59
2022-12-19T14:52:34.940Z,98738.59
2022-12-19T14:52:51.880Z,98752.59
2022-12-19T14:54:26.362Z,98753.75
2022-12-19T14:54:32.220Z,98744.13
2022-12-19T14:59:33.955Z,98746.03
2022-12-19T15:02:32.353Z,98748.72
2022-12-19T15:05:09.022Z,98739.28
2022-12-19T15:07:45.621Z,98744.44
2022-12-19T15:11:01.105Z,98741.38
2022-12-19T15:14:54.139Z,98734.56
2022-12-19T15:16:28.477Z,98737.75
2022-12-19T15:19:04.230Z,98729.44
2022-12-19T15:21:34.999Z,98733.09
2022-12-19T15:24:05.009Z,98730.84
2022-12-19T15:26:38.077Z,98726.28
2022-12-19T15:29:21.648Z,98723.47
2022-12-19T15:31:52.428Z,98734.78
2022-12-19T15:34:35.588Z,98728.16
2022-12-19T15:37:08.333Z,98732.84
2022-12-19T15:39:38.356Z,98739.47
2022-12-19T15:42:20.040Z,98715.84
2022-12-19T15:44:51.872Z,98718.25
2022-12-19T15:47:32.906Z,98719.72
2022-12-19T15:50:18.638Z,98723.13
2022-12-19T15:52:49.322Z,98734.44
2022-12-19T15:55:22.348Z,98727.25
2022-12-19T15:57:58.551Z,98724.38
2022-12-19T16:00:36.607Z,98721.31
2022-12-19T16:03:23.257Z,98709.47
2022-12-19T16:05:57.191Z,98723.03
2022-12-19T16:08:28.258Z,98720.88
2022-12-19T16:11:02.167Z,98721.78
2022-12-19T16:13:36.819Z,98724.16
2022-12-19T16:16:15.533Z,98718.72
2022-12-19T16:18:47.531Z,98721.34
2022-12-19T16:21:34.073Z,98726.69
2022-12-19T16:24:04.741Z,98719.75
2022-12-19T16:26:40.297Z,98710.38
2022-12-19T16:29:21.905Z,98703.53
2022-12-19T16:31:52.127Z,98710.81
2022-12-19T16:34:25.260Z,98703.28
2022-12-19T16:36:57.841Z,98697.16
2022-12-19T16:39:28.060Z,98688.13
2022-12-19T16:41:58.526Z,98693.38
2022-12-19T16:44:28.682Z,98691.91
2022-12-19T16:46:58.799Z,98694.19
2022-12-19T16:49:28.974Z,98687.53
2022-12-19T16:52:01.624Z,98696.22
2022-12-19T16:54:31.615Z,98696.91
2022-12-19T16:57:03.013Z,98695.53
2022-12-19T16:59:40.123Z,98703.75
2022-12-19T17:02:42.048Z,98697.81
2022-12-19T17:05:21.386Z,98693.56
2022-12-19T17:07:54.990Z,98694.81
2022-12-19T17:10:31.574Z,98698.47
2022-12-19T17:13:06.151Z,98695.25
2022-12-19T17:15:39.906Z,98690.00
2022-12-19T17:18:16.976Z,98694.13
2022-12-19T17:20:48.564Z,98695.69
2022-12-19T17:23:24.716Z,98712.34
2022-12-19T17:25:56.025Z,98697.19
2022-12-19T17:28:26.417Z,98691.38
2022-12-19T17:31:01.584Z,98686.34
2022-12-19T17:33:37.648Z,98693.22
2022-12-19T17:36:10.029Z,98694.94
2022-12-19T17:38:42.738Z,98705.22
2022-12-19T17:41:18.285Z,98708.06
2022-12-19T17:43:48.296Z,98713.63
2022-12-19T17:46:24.314Z,98715.72
2022-12-19T17:48:56.221Z,98707.72
2022-12-19T17:51:26.308Z,98719.91
2022-12-19T17:53:58.987Z,98717.88
2022-12-19T17:56:29.053Z,98712.63
2022-12-19T17:58:59.013Z,98720.28
2022-12-19T18:01:29.226Z,98714.47
2022-12-19T18:03:59.624Z,98719.72
2022-12-19T18:06:29.907Z,98718.81
2022-12-19T18:09:03.285Z,98708.75
2022-12-19T18:11:40.013Z,98708.38
2022-12-19T18:14:12.013Z,98707.56
2022-12-19T18:16:42.497Z,98703.69
2022-12-19T18:19:21.166Z,98695.94
2022-12-19T18:21:51.320Z,98702.78
2022-12-19T18:24:24.016Z,98709.50
2022-12-19T18:26:54.039Z,98712.59
2022-12-19T18:29:24.424Z,98711.25
2022-12-19T18:31:55.060Z,98716.50
2022-12-19T18:34:29.025Z,98712.84
2022-12-19T18:36:59.187Z,98714.72
2022-12-19T18:39:33.686Z,98716.16
2022-12-19T18:42:03.681Z,98717.88
2022-12-19T18:44:33.672Z,98718.34
2022-12-19T18:47:03.688Z,98717.88
2022-12-19T18:49:36.687Z,98725.19
2022-12-19T18:52:07.245Z,98709.34
2022-12-19T18:54:40.117Z,98703.75
2022-12-19T18:57:10.153Z,98701.00
2022-12-19T18:59:40.364Z,98704.91
2022-12-19T19:02:27.583Z,98718.34
2022-12-19T19:04:59.384Z,98718.25
2022-12-19T19:07:29.447Z,98717.00
2022-12-19T19:10:02.113Z,98709.22
2022-12-19T19:12:53.252Z,98706.25
2022-12-19T19:15:25.428Z,98711.03
2022-12-19T19:18:00.947Z,98709.78
2022-12-19T19:20:36.284Z,98703.75
2022-12-19T19:23:09.502Z,98701.47
2022-12-19T19:25:42.114Z,98696.00
2022-12-19T19:28:12.835Z,98690.66
2022-12-19T19:30:44.555Z,98681.84
2022-12-19T19:33:20.627Z,98686.41
2022-12-19T19:35:58.546Z,98695.75
2022-12-19T19:38:29.289Z,98693.63
2022-12-19T19:41:02.278Z,98687.53
2022-12-19T19:43:35.534Z,98701.00
2022-12-19T19:46:06.062Z,98690.19
2022-12-19T19:48:36.230Z,98695.06
2022-12-19T19:51:06.574Z,98697.69
2022-12-19T19:53:36.766Z,98698.25
2022-12-19T19:56:10.953Z,98690.94
2022-12-19T19:58:41.093Z,98693.13
2022-12-19T20:01:12.886Z,98687.41
2022-12-19T20:03:45.192Z,98687.75
2022-12-19T20:06:15.546Z,98676.34
2022-12-19T20:08:45.739Z,98681.94
2022-12-19T20:11:20.517Z,98677.06
2022-12-19T20:13:50.796Z,98669.97
2022-12-19T20:16:22.315Z,98680.38
2022-12-19T20:18:54.908Z,98677.28
2022-12-19T20:21:26.446Z,98682.66
2022-12-19T20:23:56.849Z,98679.22
2022-12-19T20:26:29.986Z,98690.66
2022-12-19T20:29:00.109Z,98693.25
2022-12-19T20:31:31.278Z,98695.31
2022-12-19T20:34:02.165Z,98697.38
2022-12-19T20:36:32.206Z,98696.00
2022-12-19T20:39:02.342Z,98698.63
2022-12-19T20:41:34.973Z,98708.31
2022-12-19T20:44:05.181Z,98697.91
2022-12-19T20:46:35.484Z,98700.88
2022-12-19T20:49:05.514Z,98693.13
2022-12-19T20:51:35.519Z,98696.53
2022-12-19T20:54:05.582Z,98687.06
2022-12-19T20:56:38.846Z,98689.09
2022-12-19T20:59:09.632Z,98692.78
2022-12-19T21:01:40.338Z,98693.34
2022-12-19T21:04:10.848Z,98697.91
2022-12-19T21:06:41.428Z,98698.00
2022-12-19T21:09:12.402Z,98703.03
2022-12-19T21:11:45.176Z,98705.66
2022-12-19T21:14:15.357Z,98704.75
2022-12-19T21:16:45.504Z,98702.00
2022-12-19T21:19:16.076Z,98693.56
2022-12-19T21:21:46.192Z,98694.69
2022-12-19T21:24:16.245Z,98698.34
2022-12-19T21:26:57.478Z,98700.66
2022-12-19T21:29:28.487Z,98700.88
2022-12-19T21:31:58.671Z,98698.72
2022-12-19T21:34:28.824Z,98705.78
2022-12-19T21:36:58.930Z,98706.38
2022-12-19T21:39:29.094Z,98702.94
2022-12-19T21:42:01.801Z,98699.41
2022-12-19T21:44:32.542Z,98696.09
2022-12-19T21:47:02.605Z,98697.13
2022-12-19T21:49:32.933Z,98698.94
2022-12-19T21:52:03.154Z,98690.06
2022-12-19T21:54:33.383Z,98687.56
2022-12-19T21:57:06.189Z,98684.44
2022-12-19T21:59:36.256Z,98688.00
2022-12-19T22:02:06.451Z,98697.38
2022-12-19T22:04:36.625Z,98697.94
2022-12-19T22:07:09.260Z,98702.03
2022-12-19T22:09:39.355Z,98709.69
2022-12-19T22:12:14.064Z,98711.50
2022-12-19T22:14:44.860Z,98709.69
2022-12-19T22:17:15.539Z,98705.78
2022-12-19T22:19:45.574Z,98706.25
2022-12-19T22:22:15.616Z,98699.50
2022-12-19T22:24:46.338Z,98702.47
2022-12-19T22:27:19.020Z,98702.63
2022-12-19T22:29:49.884Z,98699.63
2022-12-19T22:32:19.934Z,98700.19
2022-12-19T22:34:51.805Z,98700.66
2022-12-19T22:37:21.894Z,98710.34
2022-12-19T22:39:51.897Z,98710.34
2022-12-19T22:42:24.513Z,98710.00
2022-12-19T22:44:56.575Z,98711.38
2022-12-19T22:47:26.600Z,98707.69
2022-12-19T22:49:56.676Z,98698.44
2022-12-19T22:52:26.979Z,98698.44
2022-12-19T22:54:57.044Z,98705.63
2022-12-19T22:57:29.654Z,98698.06
2022-12-19T22:59:59.620Z,98689.06
2022-12-19T23:02:29.871Z,98688.25
2022-12-19T23:05:00.379Z,98694.06
2022-12-19T23:07:30.462Z,98694.50
2022-12-19T23:10:00.487Z,98691.78
2022-12-19T23:12:33.154Z,98694.78
2022-12-19T23:15:03.169Z,98691.56
2022-12-19T23:17:33.246Z,98697.81
2022-12-19T23:20:03.224Z,98697.25
2022-12-19T23:22:33.352Z,98698.78
2022-12-19T23:25:03.388Z,98687.22
2022-12-19T23:27:35.948Z,98690.84
2022-12-19T23:30:07.162Z,98681.94
2022-12-19T23:32:37.216Z,98678.00
2022-12-19T23:35:08.312Z,98679.63
2022-12-19T23:37:38.453Z,98691.75
2022-12-19T23:40:11.061Z,98697.69
2022-12-19T23:42:43.826Z,98676.66
2022-12-19T23:45:14.794Z,98677.00
2022-12-19T23:47:44.965Z,98681.44
2022-12-19T23:50:15.141Z,98681.91
2022-12-19T23:52:45.679Z,98680.41
2022-12-19T23:55:15.867Z,98683.59
2022-12-19T23:57:48.519Z,98678.56
